createdAt,value
2022-11-19T00:00:02.079Z,22
2022-11-19T00:05:01.424Z,20
2022-11-19T00:10:01.923Z,10
2022-11-19T00:15:02.289Z,10
2022-11-19T00:20:01.711Z,9
2022-11-19T00:25:02.092Z,12
2022-11-19T00:30:01.585Z,12
2022-11-19T00:35:01.934Z,9
2022-11-19T00:40:01.424Z,8
2022-11-19T00:45:01.835Z,11
2022-11-19T00:50:02.188Z,10
2022-11-19T00:55:01.564Z,9
2022-11-19T01:00:02.066Z,14
2022-11-19T01:05:01.552Z,14
2022-11-19T01:10:02.076Z,9
2022-11-19T01:15:01.574Z,14
2022-11-19T01:20:02.236Z,9
2022-11-19T01:25:01.626Z,13
2022-11-19T01:30:02.016Z,8
2022-11-19T01:35:01.420Z,11
2022-11-19T01:40:01.815Z,9
2022-11-19T01:45:02.305Z,13
2022-11-19T01:50:01.695Z,22
2022-11-19T01:55:02.203Z,17
2022-11-19T02:00:01.687Z,10
2022-11-19T02:05:02.175Z,22
2022-11-19T02:10:01.653Z,9
2022-11-19T02:15:02.032Z,26
2022-11-19T02:20:01.579Z,19
2022-11-19T02:25:01.921Z,14
2022-11-19T02:30:02.393Z,18
2022-11-19T02:35:01.766Z,10
2022-11-19T02:40:02.185Z,9
2022-11-19T02:45:01.683Z,13
2022-11-19T02:50:02.034Z,15
2022-11-19T02:55:01.553Z,10
2022-11-19T03:00:02.042Z,9
2022-11-19T03:05:01.396Z,8
2022-11-19T03:10:01.785Z,9
2022-11-19T03:15:02.141Z,10
2022-11-19T03:20:01.606Z,8
2022-11-19T03:25:01.969Z,9
2022-11-19T03:30:01.337Z,8
2022-11-19T03:35:01.829Z,9
2022-11-19T03:40:02.238Z,10
2022-11-19T03:45:01.743Z,9
2022-11-19T03:50:02.216Z,9
2022-11-19T03:55:01.641Z,8
2022-11-19T04:00:02.000Z,10
2022-11-19T04:05:01.537Z,12
2022-11-19T04:10:01.921Z,10
2022-11-19T04:15:02.264Z,10
2022-11-19T04:20:01.685Z,11
2022-11-19T04:25:02.160Z,13
2022-11-19T04:30:01.522Z,12
2022-11-19T04:35:01.995Z,11
2022-11-19T04:40:01.526Z,12
2022-11-19T04:45:01.922Z,10
2022-11-19T04:50:02.267Z,9
2022-11-19T04:55:01.617Z,13
2022-11-19T05:00:02.012Z,10
2022-11-19T05:05:01.520Z,10
2022-11-19T05:10:01.921Z,12
2022-11-19T05:15:01.394Z,13
2022-11-19T05:20:01.832Z,13
2022-11-19T05:25:02.332Z,14
2022-11-19T05:30:01.480Z,12
2022-11-19T05:35:01.828Z,13
2022-11-19T05:40:02.198Z,13
2022-11-19T05:45:01.598Z,13
2022-11-19T05:50:01.967Z,13
2022-11-19T05:55:01.509Z,13
2022-11-19T06:00:02.013Z,12
2022-11-19T06:05:01.501Z,12
2022-11-19T06:10:01.909Z,12
2022-11-19T06:15:02.399Z,12
2022-11-19T06:20:01.832Z,13
2022-11-19T06:25:02.315Z,14
2022-11-19T06:30:01.791Z,12
2022-11-19T06:35:02.265Z,10
2022-11-19T06:40:01.666Z,10
2022-11-19T06:45:02.208Z,12
2022-11-19T06:50:01.677Z,12
2022-11-19T06:55:02.025Z,10
2022-11-19T07:00:01.425Z,10
2022-11-19T07:05:01.921Z,12
2022-11-19T07:10:01.514Z,10
2022-11-19T07:15:04.610Z,10
2022-11-19T07:20:01.341Z,11
2022-11-19T07:25:01.846Z,10
2022-11-19T07:30:02.212Z,12
2022-11-19T07:35:01.704Z,9
2022-11-19T07:40:02.105Z,10
2022-11-19T07:45:01.480Z,12
2022-11-19T07:50:01.845Z,10
2022-11-19T07:55:02.311Z,12
2022-11-19T08:00:01.686Z,12
2022-11-19T08:05:02.172Z,12
2022-11-19T08:10:01.557Z,9
2022-11-19T08:15:02.055Z,12
2022-11-19T08:20:01.644Z,11
2022-11-19T08:25:02.001Z,9
2022-11-19T08:30:01.382Z,13
2022-11-19T08:35:01.855Z,10
2022-11-19T08:40:02.361Z,11
2022-11-19T08:45:01.864Z,12
2022-11-19T08:50:02.247Z,12
2022-11-19T08:55:01.636Z,11
2022-11-19T09:00:06.295Z,9
2022-11-19T09:05:02.193Z,12
2022-11-19T09:10:01.638Z,10
2022-11-19T09:15:02.026Z,11
2022-11-19T09:20:01.499Z,9
2022-11-19T09:25:01.856Z,13
2022-11-19T09:30:02.354Z,10
2022-11-19T09:35:02.101Z,10
2022-11-19T09:40:01.626Z,11
2022-11-19T09:45:02.128Z,12
2022-11-19T09:50:01.619Z,9
2022-11-19T09:55:02.112Z,12
2022-11-19T10:00:01.502Z,13
2022-11-19T10:05:02.007Z,17
2022-11-19T10:10:01.399Z,17
2022-11-19T10:15:01.861Z,20
2022-11-19T10:20:02.422Z,16
2022-11-19T10:25:01.897Z,22
2022-11-19T10:30:02.376Z,21
2022-11-19T10:35:01.753Z,19
2022-11-19T10:40:02.300Z,19
2022-11-19T10:45:01.689Z,24
2022-11-19T10:50:04.549Z,25
2022-11-19T10:55:01.976Z,23
2022-11-19T11:00:01.493Z,23
2022-11-19T11:05:01.998Z,21
2022-11-19T11:10:01.409Z,16
2022-11-19T11:15:01.833Z,16
2022-11-19T11:20:02.213Z,20
2022-11-19T11:25:07.023Z,19
2022-11-19T11:30:02.057Z,16
2022-11-19T11:35:06.920Z,17
2022-11-19T11:40:01.833Z,16
2022-11-19T11:45:02.315Z,14
2022-11-19T11:50:01.778Z,16
2022-11-19T11:55:02.261Z,15
2022-11-19T12:00:01.762Z,15
2022-11-19T12:05:02.395Z,17
2022-11-19T12:10:01.940Z,15
2022-11-19T12:15:02.439Z,13
2022-11-19T12:20:01.954Z,11
2022-11-19T12:25:01.449Z,14
2022-11-19T12:30:01.983Z,12
2022-11-19T12:35:01.463Z,11
2022-11-19T12:40:01.869Z,9
2022-11-19T12:45:02.372Z,13
2022-11-19T12:50:01.869Z,11
2022-11-19T12:55:02.230Z,10
2022-11-19T13:00:01.739Z,13
2022-11-19T13:05:02.085Z,9
2022-11-19T13:10:01.585Z,10
2022-11-19T13:15:02.068Z,11
2022-11-19T13:20:02.212Z,9
2022-11-19T13:25:01.885Z,9
2022-11-19T13:30:02.256Z,8
2022-11-19T13:35:01.790Z,8
2022-11-19T13:40:02.187Z,9
2022-11-19T13:45:01.557Z,8
2022-11-19T13:50:02.045Z,8
2022-11-19T13:55:01.541Z,7
2022-11-19T14:00:02.049Z,7
2022-11-19T14:05:01.537Z,8
2022-11-19T14:10:01.928Z,9
2022-11-19T14:15:02.308Z,9
2022-11-19T14:20:01.726Z,9
2022-11-19T14:25:02.082Z,9
2022-11-19T14:30:01.438Z,8
2022-11-19T14:35:01.846Z,7
2022-11-19T14:40:02.359Z,9
2022-11-19T14:45:01.855Z,7
2022-11-19T14:50:02.363Z,8
2022-11-19T14:55:01.844Z,11
2022-11-19T15:00:02.248Z,8
2022-11-19T15:05:01.732Z,12
2022-11-19T15:10:02.256Z,9
2022-11-19T15:15:01.801Z,9
2022-11-19T15:20:02.356Z,10
2022-11-19T15:25:01.831Z,6
2022-11-19T15:30:02.322Z,10
2022-11-19T15:35:10.805Z,10
2022-11-19T15:40:01.882Z,14
2022-11-19T15:45:01.530Z,12
2022-11-19T15:50:02.020Z,10
2022-11-19T15:55:01.462Z,10
2022-11-19T16:00:02.007Z,8
2022-11-19T16:05:01.615Z,9
2022-11-19T16:10:02.139Z,9
2022-11-19T16:15:01.650Z,9
2022-11-19T16:20:02.191Z,9
2022-11-19T16:25:01.543Z,9
2022-11-19T16:30:02.084Z,9
2022-11-19T16:35:01.556Z,13
2022-11-19T16:40:02.073Z,11
2022-11-19T16:45:01.599Z,14
2022-11-19T16:50:01.958Z,11
2022-11-19T16:55:01.509Z,7
2022-11-19T17:00:02.032Z,10
2022-11-19T17:05:01.538Z,10
2022-11-19T17:10:02.063Z,10
2022-11-19T17:15:01.560Z,11
2022-11-19T17:20:02.022Z,9
2022-11-19T17:25:01.512Z,8
2022-11-19T17:30:02.018Z,9
2022-11-19T17:35:01.554Z,9
2022-11-19T17:40:02.074Z,11
2022-11-19T17:45:05.986Z,3
2022-11-19T17:50:01.781Z,8
2022-11-19T17:55:02.264Z,8
2022-11-19T18:00:01.748Z,7
2022-11-19T18:05:02.200Z,8
2022-11-19T18:10:01.600Z,8
2022-11-19T18:15:02.359Z,8
2022-11-19T18:20:01.892Z,8
2022-11-19T18:25:02.376Z,8
2022-11-19T18:30:01.740Z,9
2022-11-19T18:35:02.220Z,10
2022-11-19T18:40:01.751Z,7
2022-11-19T18:45:02.247Z,8
2022-11-19T18:50:01.595Z,8
2022-11-19T18:55:01.952Z,8
2022-11-19T19:00:01.510Z,6
2022-11-19T19:05:02.068Z,8
2022-11-19T19:10:01.581Z,9
2022-11-19T19:15:02.085Z,7
2022-11-19T19:20:01.623Z,7
2022-11-19T19:25:02.105Z,8
2022-11-19T19:30:01.596Z,6
2022-11-19T19:35:02.087Z,12
2022-11-19T19:40:01.482Z,22
2022-11-19T19:45:01.870Z,33
2022-11-19T19:50:02.340Z,40
2022-11-19T19:55:01.763Z,42
2022-11-19T20:00:02.308Z,40
2022-11-19T20:05:01.797Z,44
2022-11-19T20:10:02.298Z,42
2022-11-19T20:15:01.791Z,39
2022-11-19T20:20:02.337Z,42
2022-11-19T20:25:01.817Z,41
2022-11-19T20:30:03.487Z,41
2022-11-19T20:35:02.249Z,35
2022-11-19T20:40:01.756Z,35
2022-11-19T20:45:02.239Z,33
2022-11-19T20:50:01.758Z,36
2022-11-19T20:55:06.389Z,35
2022-11-19T21:00:02.255Z,37
2022-11-19T21:05:01.747Z,37
2022-11-19T21:10:07.486Z,37
2022-11-19T21:15:01.332Z,35
2022-11-19T21:20:01.931Z,30
2022-11-19T21:25:02.301Z,31
2022-11-19T21:30:01.683Z,31
2022-11-19T21:35:02.191Z,29
2022-11-19T21:40:01.774Z,25
2022-11-19T21:45:02.136Z,22
2022-11-19T21:50:01.511Z,20
2022-11-19T21:55:01.893Z,18
2022-11-19T22:00:02.298Z,16
2022-11-19T22:05:01.663Z,19
2022-11-19T22:10:02.219Z,16
2022-11-19T22:15:01.730Z,15
2022-11-19T22:20:01.897Z,14
2022-11-19T22:25:02.271Z,18
2022-11-19T22:30:05.726Z,13
2022-11-19T22:35:01.583Z,14
2022-11-19T22:40:02.105Z,13
2022-11-19T22:45:01.604Z,13
2022-11-19T22:50:01.982Z,13
2022-11-19T22:55:01.342Z,13
2022-11-19T23:00:01.903Z,10
2022-11-19T23:05:02.036Z,13
2022-11-19T23:10:01.415Z,13
2022-11-19T23:15:01.828Z,11
2022-11-19T23:20:04.843Z,12
2022-11-19T23:25:01.639Z,12
2022-11-19T23:30:02.185Z,9
2022-11-19T23:35:01.660Z,9
2022-11-19T23:40:02.041Z,9
2022-11-19T23:45:01.414Z,9
2022-11-19T23:50:01.882Z,12
2022-11-19T23:55:02.237Z,9
